Here is the Quick Look data you requested

The Data originates at the National Weather Service, and is made available here by the UAlbany Department of Atmospheric and Environmental Sciences

Surface Observations

KAKQ 070854Z AUTO 36003KT 10SM CLR 07/02 A3023 RMK AO2 SLP237 T00670022 53025=
KAVC 070855Z AUTO 34004KT 10SM CLR 04/01 A3026 RMK AO2 T00420005=
KBCB 070855Z AUTO 00000KT 10SM OVC031 06/05 A3024 RMK AO2 T00610050=
KCHO 070853Z AUTO 04007KT 10SM SCT037 06/M01 A3025 RMK AO2 SLP243 T00561006
 51024=
KCJR 070855Z AUTO 36006KT 10SM CLR 03/M06 A3031 RMK AO2 T00331061=
KCPK 070855Z AUTO 00000KT 10SM SCT075 02/02 A3021 RMK AO2 T00220015=
KDAA 070856Z AUTO 32008KT 10SM CLR 04/M06 A3030 RMK AO2 SLP264 T00391061 52029
 $=
KDAN 070853Z AUTO 00000KT 10SM CLR 02/01 A3022 RMK AO2 SLP229 T00170006 51012=
KDCA 070852Z 35007KT 10SM FEW044 03/M04 A3031 RMK AO2 SLP264 T00281044 51028=
KEZF 070855Z AUTO 35009KT 10SM SCT065 05/M03 A3029 RMK AO2 T00471033=
KFAF 070856Z AUTO 02007KT 10SM CLR 08/02 A3021 RMK AO2 SLP233 T00840020 52026 $=
KFKN 070855Z AUTO 00000KT 10SM CLR 01/01 A3022 RMK AO2 T00100007=
KFVX 070855Z AUTO 03007KT 10SM CLR 04/02 A3023 RMK AO2 T00350015=
KHEF 070856Z AUTO 36006KT 10SM CLR 02/M06 A3031 RMK AO2 SLP272 T00221056 51026
 FZRANO=
KHLX 070855Z AUTO 30004KT 10SM OVC034 06/02 A3020 RMK AO2 T00580021=
KHSP 070855Z AUTO 00000KT 1/4SM FG OVC002 01/01 A3017 RMK AO2 T00100010=
KIAD 070852Z 35008KT 10SM CLR 02/M06 A3030 RMK AO2 SLP261 T00221061 51023=
KJYO 070855Z AUTO 35005KT 10SM CLR 01/M04 A3031 RMK AO2=
KLFI 070856Z 01017G20KT 10SM CLR 08/04 A3022 RMK AO2A SLP240 T00820036 52025 $=
KLKU 070855Z AUTO 02008KT 10SM BKN038 OVC048 05/M03 A3030 RMK AO2 T00471028=
KLNP 070855Z AUTO 01003KT 1/4SM FG OVC003 05/05 A3023 RMK AO2=
KLYH 070854Z AUTO 33004KT 10SM SCT055 02/00 A3021 RMK AO2 SLP233 T00170000
 53012=
KMKJ 070855Z AUTO 27004KT 10SM OVC039 06/04 A3023 RMK AO2 T00550036=
KMTV 070855Z AUTO 00000KT 10SM CLR M01/M01 A3025 RMK AO2 T10151015=
KNGU 070859Z 02016G26KT 10SM FEW060 SCT110 09/03 A3024 RMK AO2 PK WND
 01026/0851 SLP239 T00890028 53026 $
KNTU 070856Z 36009KT 10SM FEW100 08/03 A3020 RMK AO2 SLP228 T00830033 53020=
KNYG 070856Z AUTO 35012KT 10SM CLR 05/M04 A3032 RMK AO2 SLP266 T00501044 51031
 $=
KOFP 070854Z AUTO 36004KT 10SM CLR 06/M02 A3028 RMK AO2 SLP253 T00561017 53029=
KOKV 070855Z AUTO 32004KT 10SM CLR M01/M06 A3029 RMK AO2=
KOMH 070855Z AUTO 01012G19KT 10SM SCT044 BKN049 03/M03 A3027 RMK AO2=
KORF 070851Z 01015G23KT 10SM CLR 10/04 A3021 RMK AO2 SLP229 T01000044 53023=
KPHF 070854Z AUTO 03008KT 10SM CLR 08/02 A3023 RMK AO2 SLP234 T00830022 53024=
KPSK 070855Z AUTO 29003KT 10SM SCT022 BKN029 OVC035 07/05 A3023 RMK AO2
 T00670046=
KPTB 070855Z AUTO 01006KT 10SM CLR 06/01 A3024 RMK AO2 T00560013=
KRIC 070854Z 02011KT 10SM CLR 06/00 A3025 RMK AO2 SLP247 T00610000 53029=
KROA 070854Z 00000KT 10SM BKN043 07/02 A3024 RMK AO2 SLP240 T00670022 53011=
KSFQ 070855Z AUTO 00000KT 10SM SCT080 03/02 A3022 RMK AO2 T00250016=
KSHD 070855Z AUTO 03006KT 10SM CLR 00/M02 A3027 RMK AO2 T00011017=
KVJI 070855Z AUTO 00000KT 10SM OVC040 07/00 A3023 RMK AO2 T00660002=
KWAL 070854Z AUTO 35009KT 10SM OVC065 07/M01 A3023 RMK AO2 SLP233 T00721006
 51028=